sensor_id;sensor_type;location;lat;lon;timestamp;temperature;humidity
62809;DHT22;48848;39.002;-94.584;2023-10-08T00:01:08;18.30;50.50
62809;DHT22;48848;39.002;-94.584;2023-10-08T00:03:37;18.30;50.40
62809;DHT22;48848;39.002;-94.584;2023-10-08T00:06:03;18.30;50.40
62809;DHT22;48848;39.002;-94.584;2023-10-08T00:08:33;18.30;50.40
62809;DHT22;48848;39.002;-94.584;2023-10-08T00:10:58;18.30;50.40
62809;DHT22;48848;39.002;-94.584;2023-10-08T00:13:31;18.30;50.40
62809;DHT22;48848;39.002;-94.584;2023-10-08T00:16:02;18.30;50.40
62809;DHT22;48848;39.002;-94.584;2023-10-08T00:18:34;18.30;50.40
62809;DHT22;48848;39.002;-94.584;2023-10-08T00:21:00;18.40;50.50
62809;DHT22;48848;39.002;-94.584;2023-10-08T00:23:35;18.40;50.40
62809;DHT22;48848;39.002;-94.584;2023-10-08T00:26:10;18.40;50.40
62809;DHT22;48848;39.002;-94.584;2023-10-08T00:28:36;18.40;50.40
62809;DHT22;48848;39.002;-94.584;2023-10-08T00:31:02;18.40;50.30
62809;DHT22;48848;39.002;-94.584;2023-10-08T00:33:43;18.40;50.40
62809;DHT22;48848;39.002;-94.584;2023-10-08T00:36:10;18.40;50.40
62809;DHT22;48848;39.002;-94.584;2023-10-08T00:38:46;18.40;50.20
62809;DHT22;48848;39.002;-94.584;2023-10-08T00:41:15;18.40;50.10
62809;DHT22;48848;39.002;-94.584;2023-10-08T00:43:42;18.40;50.10
62809;DHT22;48848;39.002;-94.584;2023-10-08T00:46:10;18.40;50.20
62809;DHT22;48848;39.002;-94.584;2023-10-08T00:48:45;18.40;50.20
62809;DHT22;48848;39.002;-94.584;2023-10-08T00:51:12;18.40;50.10
62809;DHT22;48848;39.002;-94.584;2023-10-08T00:53:56;18.40;49.80
62809;DHT22;48848;39.002;-94.584;2023-10-08T00:56:31;18.50;50.00
62809;DHT22;48848;39.002;-94.584;2023-10-08T00:59:16;18.50;49.60
62809;DHT22;48848;39.002;-94.584;2023-10-08T01:01:43;18.50;49.20
62809;DHT22;48848;39.002;-94.584;2023-10-08T01:04:15;18.50;49.10
62809;DHT22;48848;39.002;-94.584;2023-10-08T01:06:41;18.50;49.00
62809;DHT22;48848;39.002;-94.584;2023-10-08T01:09:07;18.40;49.00
62809;DHT22;48848;39.002;-94.584;2023-10-08T01:12:06;18.50;50.10
62809;DHT22;48848;39.002;-94.584;2023-10-08T01:14:34;18.40;49.00
62809;DHT22;48848;39.002;-94.584;2023-10-08T01:17:01;18.40;49.00
62809;DHT22;48848;39.002;-94.584;2023-10-08T01:19:27;18.50;49.00
62809;DHT22;48848;39.002;-94.584;2023-10-08T01:21:53;18.50;49.10
62809;DHT22;48848;39.002;-94.584;2023-10-08T01:24:19;18.40;49.00
62809;DHT22;48848;39.002;-94.584;2023-10-08T01:26:49;18.40;49.00
62809;DHT22;48848;39.002;-94.584;2023-10-08T01:29:15;18.40;48.90
62809;DHT22;48848;39.002;-94.584;2023-10-08T01:31:50;18.40;48.90
62809;DHT22;48848;39.002;-94.584;2023-10-08T01:34:20;18.40;49.00
62809;DHT22;48848;39.002;-94.584;2023-10-08T01:36:52;18.40;49.00
62809;DHT22;48848;39.002;-94.584;2023-10-08T01:39:18;18.30;49.00
62809;DHT22;48848;39.002;-94.584;2023-10-08T01:41:44;18.30;49.00
62809;DHT22;48848;39.002;-94.584;2023-10-08T01:44:12;18.30;49.00
62809;DHT22;48848;39.002;-94.584;2023-10-08T01:46:38;18.30;49.00
62809;DHT22;48848;39.002;-94.584;2023-10-08T01:49:06;18.30;49.10
62809;DHT22;48848;39.002;-94.584;2023-10-08T01:51:40;18.30;49.20
62809;DHT22;48848;39.002;-94.584;2023-10-08T01:54:15;18.30;49.10
62809;DHT22;48848;39.002;-94.584;2023-10-08T01:56:43;18.30;49.20
62809;DHT22;48848;39.002;-94.584;2023-10-08T01:59:10;18.30;49.20
62809;DHT22;48848;39.002;-94.584;2023-10-08T02:01:37;18.20;49.10
62809;DHT22;48848;39.002;-94.584;2023-10-08T02:04:04;18.20;49.10
62809;DHT22;48848;39.002;-94.584;2023-10-08T02:06:33;18.20;49.30
62809;DHT22;48848;39.002;-94.584;2023-10-08T02:08:58;18.20;49.50
62809;DHT22;48848;39.002;-94.584;2023-10-08T02:11:24;18.10;49.60
62809;DHT22;48848;39.002;-94.584;2023-10-08T02:13:53;18.10;49.70
62809;DHT22;48848;39.002;-94.584;2023-10-08T02:16:19;18.10;49.70
62809;DHT22;48848;39.002;-94.584;2023-10-08T02:18:44;18.10;49.60
62809;DHT22;48848;39.002;-94.584;2023-10-08T02:21:11;18.00;49.50
62809;DHT22;48848;39.002;-94.584;2023-10-08T02:23:37;18.00;49.60
62809;DHT22;48848;39.002;-94.584;2023-10-08T02:26:03;18.00;49.60
62809;DHT22;48848;39.002;-94.584;2023-10-08T02:28:29;18.00;49.60
62809;DHT22;48848;39.002;-94.584;2023-10-08T02:30:55;18.00;49.70
62809;DHT22;48848;39.002;-94.584;2023-10-08T02:33:21;18.00;49.70
62809;DHT22;48848;39.002;-94.584;2023-10-08T02:35:47;18.00;49.90
62809;DHT22;48848;39.002;-94.584;2023-10-08T02:38:16;17.90;50.10
62809;DHT22;48848;39.002;-94.584;2023-10-08T02:40:43;17.90;50.00
62809;DHT22;48848;39.002;-94.584;2023-10-08T02:43:14;17.90;50.00
62809;DHT22;48848;39.002;-94.584;2023-10-08T02:45:41;17.90;50.00
62809;DHT22;48848;39.002;-94.584;2023-10-08T02:48:07;17.90;50.20
62809;DHT22;48848;39.002;-94.584;2023-10-08T02:50:41;17.80;50.00
62809;DHT22;48848;39.002;-94.584;2023-10-08T02:53:07;17.80;50.20
62809;DHT22;48848;39.002;-94.584;2023-10-08T02:55:40;17.80;50.50
62809;DHT22;48848;39.002;-94.584;2023-10-08T02:58:10;17.80;50.70
62809;DHT22;48848;39.002;-94.584;2023-10-08T03:00:46;17.80;50.60
62809;DHT22;48848;39.002;-94.584;2023-10-08T03:03:15;17.80;50.60
62809;DHT22;48848;39.002;-94.584;2023-10-08T03:05:45;17.80;50.50
62809;DHT22;48848;39.002;-94.584;2023-10-08T03:08:12;17.80;50.60
62809;DHT22;48848;39.002;-94.584;2023-10-08T03:10:38;17.80;50.50
62809;DHT22;48848;39.002;-94.584;2023-10-08T03:13:05;17.70;50.50
62809;DHT22;48848;39.002;-94.584;2023-10-08T03:15:31;17.70;50.60
62809;DHT22;48848;39.002;-94.584;2023-10-08T03:18:12;17.70;50.80
62809;DHT22;48848;39.002;-94.584;2023-10-08T03:20:40;17.70;50.90
62809;DHT22;48848;39.002;-94.584;2023-10-08T03:23:15;17.70;51.20
62809;DHT22;48848;39.002;-94.584;2023-10-08T03:25:58;17.70;51.30
62809;DHT22;48848;39.002;-94.584;2023-10-08T03:28:26;17.70;51.30
62809;DHT22;48848;39.002;-94.584;2023-10-08T03:30:56;17.70;51.20
62809;DHT22;48848;39.002;-94.584;2023-10-08T03:33:34;17.60;51.30
62809;DHT22;48848;39.002;-94.584;2023-10-08T03:36:01;17.60;51.40
62809;DHT22;48848;39.002;-94.584;2023-10-08T03:38:35;17.60;51.40
62809;DHT22;48848;39.002;-94.584;2023-10-08T03:41:10;17.60;51.20
62809;DHT22;48848;39.002;-94.584;2023-10-08T03:43:42;17.60;51.40
62809;DHT22;48848;39.002;-94.584;2023-10-08T03:46:28;17.60;51.60
62809;DHT22;48848;39.002;-94.584;2023-10-08T03:48:54;17.60;51.50
62809;DHT22;48848;39.002;-94.584;2023-10-08T03:51:23;17.60;51.60
62809;DHT22;48848;39.002;-94.584;2023-10-08T03:53:53;17.50;51.50
62809;DHT22;48848;39.002;-94.584;2023-10-08T03:56:35;17.50;51.60
62809;DHT22;48848;39.002;-94.584;2023-10-08T03:59:06;17.50;51.50
62809;DHT22;48848;39.002;-94.584;2023-10-08T04:01:44;17.50;51.60
62809;DHT22;48848;39.002;-94.584;2023-10-08T04:04:10;17.50;51.30
62809;DHT22;48848;39.002;-94.584;2023-10-08T04:06:40;17.50;51.10
62809;DHT22;48848;39.002;-94.584;2023-10-08T04:09:13;17.50;51.10
62809;DHT22;48848;39.002;-94.584;2023-10-08T04:11:46;17.50;51.10
62809;DHT22;48848;39.002;-94.584;2023-10-08T04:14:15;17.50;51.20
62809;DHT22;48848;39.002;-94.584;2023-10-08T04:16:44;17.50;51.20
62809;DHT22;48848;39.002;-94.584;2023-10-08T04:19:11;17.50;51.30
62809;DHT22;48848;39.002;-94.584;2023-10-08T04:21:37;17.50;51.30
62809;DHT22;48848;39.002;-94.584;2023-10-08T04:24:05;17.50;51.40
62809;DHT22;48848;39.002;-94.584;2023-10-08T04:26:31;17.50;51.50
62809;DHT22;48848;39.002;-94.584;2023-10-08T04:28:58;17.50;51.60
62809;DHT22;48848;39.002;-94.584;2023-10-08T04:31:27;17.50;51.60
62809;DHT22;48848;39.002;-94.584;2023-10-08T04:34:02;17.50;51.60
62809;DHT22;48848;39.002;-94.584;2023-10-08T04:36:34;17.40;51.50
62809;DHT22;48848;39.002;-94.584;2023-10-08T04:39:06;17.40;51.60
62809;DHT22;48848;39.002;-94.584;2023-10-08T04:41:39;17.40;51.70
62809;DHT22;48848;39.002;-94.584;2023-10-08T04:44:11;17.40;51.70
62809;DHT22;48848;39.002;-94.584;2023-10-08T04:46:41;17.40;52.00
62809;DHT22;48848;39.002;-94.584;2023-10-08T04:49:13;17.30;51.80
62809;DHT22;48848;39.002;-94.584;2023-10-08T04:52:00;17.30;51.80
62809;DHT22;48848;39.002;-94.584;2023-10-08T04:54:26;17.30;51.90
62809;DHT22;48848;39.002;-94.584;2023-10-08T04:56:56;17.30;51.80
62809;DHT22;48848;39.002;-94.584;2023-10-08T04:59:24;17.30;51.80
62809;DHT22;48848;39.002;-94.584;2023-10-08T05:01:58;17.30;51.90
62809;DHT22;48848;39.002;-94.584;2023-10-08T05:04:42;17.30;52.10
62809;DHT22;48848;39.002;-94.584;2023-10-08T05:07:28;17.30;52.30
62809;DHT22;48848;39.002;-94.584;2023-10-08T05:10:17;17.30;53.10
62809;DHT22;48848;39.002;-94.584;2023-10-08T05:13:03;17.30;52.10
62809;DHT22;48848;39.002;-94.584;2023-10-08T05:15:29;17.30;52.30
62809;DHT22;48848;39.002;-94.584;2023-10-08T05:18:12;17.30;52.20
62809;DHT22;48848;39.002;-94.584;2023-10-08T05:20:44;17.20;52.20
62809;DHT22;48848;39.002;-94.584;2023-10-08T05:23:17;17.20;52.40
62809;DHT22;48848;39.002;-94.584;2023-10-08T05:25:58;17.20;52.40
62809;DHT22;48848;39.002;-94.584;2023-10-08T05:28:33;17.20;52.50
62809;DHT22;48848;39.002;-94.584;2023-10-08T05:31:12;17.20;52.30
62809;DHT22;48848;39.002;-94.584;2023-10-08T05:33:41;17.10;52.40
62809;DHT22;48848;39.002;-94.584;2023-10-08T05:36:46;17.20;52.60
62809;DHT22;48848;39.002;-94.584;2023-10-08T05:39:30;17.10;52.40
62809;DHT22;48848;39.002;-94.584;2023-10-08T05:42:06;17.10;52.40
62809;DHT22;48848;39.002;-94.584;2023-10-08T05:45:10;17.10;52.60
62809;DHT22;48848;39.002;-94.584;2023-10-08T05:47:36;17.10;52.60
62809;DHT22;48848;39.002;-94.584;2023-10-08T05:50:02;17.10;52.70
62809;DHT22;48848;39.002;-94.584;2023-10-08T05:52:44;17.00;52.60
62809;DHT22;48848;39.002;-94.584;2023-10-08T05:55:18;17.10;52.80
62809;DHT22;48848;39.002;-94.584;2023-10-08T05:57:54;17.10;52.80
62809;DHT22;48848;39.002;-94.584;2023-10-08T06:00:43;17.10;52.70
62809;DHT22;48848;39.002;-94.584;2023-10-08T06:03:14;17.00;52.60
62809;DHT22;48848;39.002;-94.584;2023-10-08T06:06:03;17.00;52.90
62809;DHT22;48848;39.002;-94.584;2023-10-08T06:08:38;17.00;52.80
62809;DHT22;48848;39.002;-94.584;2023-10-08T06:11:22;16.90;53.10
62809;DHT22;48848;39.002;-94.584;2023-10-08T06:14:06;16.90;53.00
62809;DHT22;48848;39.002;-94.584;2023-10-08T06:17:02;16.90;52.90
62809;DHT22;48848;39.002;-94.584;2023-10-08T06:19:48;16.90;52.90
62809;DHT22;48848;39.002;-94.584;2023-10-08T06:22:15;16.90;53.00
62809;DHT22;48848;39.002;-94.584;2023-10-08T06:24:40;16.90;53.00
62809;DHT22;48848;39.002;-94.584;2023-10-08T06:27:06;16.90;52.90
62809;DHT22;48848;39.002;-94.584;2023-10-08T06:29:32;16.80;53.10
62809;DHT22;48848;39.002;-94.584;2023-10-08T06:31:58;16.80;53.20
62809;DHT22;48848;39.002;-94.584;2023-10-08T06:34:31;16.80;53.10
62809;DHT22;48848;39.002;-94.584;2023-10-08T06:37:00;16.80;53.20
62809;DHT22;48848;39.002;-94.584;2023-10-08T06:39:26;16.80;53.40
62809;DHT22;48848;39.002;-94.584;2023-10-08T06:42:02;16.80;53.40
62809;DHT22;48848;39.002;-94.584;2023-10-08T06:44:28;16.80;53.40
62809;DHT22;48848;39.002;-94.584;2023-10-08T06:46:54;16.80;53.30
62809;DHT22;48848;39.002;-94.584;2023-10-08T06:49:23;16.70;53.40
62809;DHT22;48848;39.002;-94.584;2023-10-08T06:51:50;16.80;53.30
62809;DHT22;48848;39.002;-94.584;2023-10-08T06:54:16;16.70;53.30
62809;DHT22;48848;39.002;-94.584;2023-10-08T06:56:43;16.70;53.40
62809;DHT22;48848;39.002;-94.584;2023-10-08T06:59:12;16.70;53.50
62809;DHT22;48848;39.002;-94.584;2023-10-08T07:01:38;16.70;53.40
62809;DHT22;48848;39.002;-94.584;2023-10-08T07:04:05;16.60;53.30
62809;DHT22;48848;39.002;-94.584;2023-10-08T07:06:32;16.60;53.30
62809;DHT22;48848;39.002;-94.584;2023-10-08T07:08:59;16.60;53.30
62809;DHT22;48848;39.002;-94.584;2023-10-08T07:11:30;16.60;53.40
62809;DHT22;48848;39.002;-94.584;2023-10-08T07:14:00;16.60;53.40
62809;DHT22;48848;39.002;-94.584;2023-10-08T07:16:26;16.60;53.60
62809;DHT22;48848;39.002;-94.584;2023-10-08T07:18:53;16.60;53.60
62809;DHT22;48848;39.002;-94.584;2023-10-08T07:21:27;16.60;53.70
62809;DHT22;48848;39.002;-94.584;2023-10-08T07:24:08;16.60;53.70
62809;DHT22;48848;39.002;-94.584;2023-10-08T07:26:40;16.50;53.50
62809;DHT22;48848;39.002;-94.584;2023-10-08T07:29:12;16.50;53.60
62809;DHT22;48848;39.002;-94.584;2023-10-08T07:31:42;16.50;53.70
62809;DHT22;48848;39.002;-94.584;2023-10-08T07:34:13;16.50;53.70
62809;DHT22;48848;39.002;-94.584;2023-10-08T07:36:51;16.50;53.60
62809;DHT22;48848;39.002;-94.584;2023-10-08T07:39:18;16.50;53.70
62809;DHT22;48848;39.002;-94.584;2023-10-08T07:41:59;16.40;53.70
62809;DHT22;48848;39.002;-94.584;2023-10-08T07:44:25;16.40;53.80
62809;DHT22;48848;39.002;-94.584;2023-10-08T07:46:53;16.40;53.80
62809;DHT22;48848;39.002;-94.584;2023-10-08T07:49:23;16.40;53.70
62809;DHT22;48848;39.002;-94.584;2023-10-08T07:51:50;16.40;53.70
62809;DHT22;48848;39.002;-94.584;2023-10-08T07:54:22;16.40;53.80
62809;DHT22;48848;39.002;-94.584;2023-10-08T07:56:50;16.40;53.80
62809;DHT22;48848;39.002;-94.584;2023-10-08T07:59:25;16.40;53.80
62809;DHT22;48848;39.002;-94.584;2023-10-08T08:01:50;16.40;53.90
62809;DHT22;48848;39.002;-94.584;2023-10-08T08:04:19;16.30;53.90
62809;DHT22;48848;39.002;-94.584;2023-10-08T08:06:49;16.30;53.80
62809;DHT22;48848;39.002;-94.584;2023-10-08T08:09:16;16.30;54.00
62809;DHT22;48848;39.002;-94.584;2023-10-08T08:11:48;16.30;54.00
62809;DHT22;48848;39.002;-94.584;2023-10-08T08:14:14;16.30;54.00
62809;DHT22;48848;39.002;-94.584;2023-10-08T08:16:45;16.30;54.00
62809;DHT22;48848;39.002;-94.584;2023-10-08T08:19:17;16.30;54.00
62809;DHT22;48848;39.002;-94.584;2023-10-08T08:21:49;16.20;54.00
62809;DHT22;48848;39.002;-94.584;2023-10-08T08:24:17;16.20;54.00
62809;DHT22;48848;39.002;-94.584;2023-10-08T08:26:55;16.20;54.10
62809;DHT22;48848;39.002;-94.584;2023-10-08T08:29:33;16.20;55.00
62809;DHT22;48848;39.002;-94.584;2023-10-08T08:32:10;16.20;54.10
62809;DHT22;48848;39.002;-94.584;2023-10-08T08:34:38;16.20;54.00
62809;DHT22;48848;39.002;-94.584;2023-10-08T08:37:12;16.20;54.10
62809;DHT22;48848;39.002;-94.584;2023-10-08T08:39:38;16.20;54.10
62809;DHT22;48848;39.002;-94.584;2023-10-08T08:42:04;16.20;54.20
62809;DHT22;48848;39.002;-94.584;2023-10-08T08:44:30;16.10;54.10
62809;DHT22;48848;39.002;-94.584;2023-10-08T08:47:00;16.10;54.10
62809;DHT22;48848;39.002;-94.584;2023-10-08T08:49:33;16.20;54.20
62809;DHT22;48848;39.002;-94.584;2023-10-08T08:52:00;16.10;54.20
62809;DHT22;48848;39.002;-94.584;2023-10-08T08:54:29;16.10;54.20
62809;DHT22;48848;39.002;-94.584;2023-10-08T08:56:59;16.10;54.20
62809;DHT22;48848;39.002;-94.584;2023-10-08T08:59:29;16.10;54.20
62809;DHT22;48848;39.002;-94.584;2023-10-08T09:01:59;16.00;54.20
62809;DHT22;48848;39.002;-94.584;2023-10-08T09:04:31;16.00;54.20
62809;DHT22;48848;39.002;-94.584;2023-10-08T09:07:01;16.00;54.30
62809;DHT22;48848;39.002;-94.584;2023-10-08T09:09:33;16.00;54.30
62809;DHT22;48848;39.002;-94.584;2023-10-08T09:12:00;16.00;54.30
62809;DHT22;48848;39.002;-94.584;2023-10-08T09:14:27;16.00;54.30
62809;DHT22;48848;39.002;-94.584;2023-10-08T09:16:55;16.00;54.20
62809;DHT22;48848;39.002;-94.584;2023-10-08T09:19:21;16.00;54.30
62809;DHT22;48848;39.002;-94.584;2023-10-08T09:24:32;15.90;54.30
62809;DHT22;48848;39.002;-94.584;2023-10-08T09:27:17;15.90;54.40
62809;DHT22;48848;39.002;-94.584;2023-10-08T09:29:44;15.90;54.40
62809;DHT22;48848;39.002;-94.584;2023-10-08T09:32:12;15.90;54.40
62809;DHT22;48848;39.002;-94.584;2023-10-08T09:34:49;15.90;54.40
62809;DHT22;48848;39.002;-94.584;2023-10-08T09:37:16;15.90;54.40
62809;DHT22;48848;39.002;-94.584;2023-10-08T09:39:42;15.90;54.40
62809;DHT22;48848;39.002;-94.584;2023-10-08T09:42:11;15.90;54.40
62809;DHT22;48848;39.002;-94.584;2023-10-08T09:44:39;15.80;54.30
62809;DHT22;48848;39.002;-94.584;2023-10-08T09:52:03;15.80;54.50
62809;DHT22;48848;39.002;-94.584;2023-10-08T09:54:35;15.80;54.50
62809;DHT22;48848;39.002;-94.584;2023-10-08T09:57:05;15.80;54.60
62809;DHT22;48848;39.002;-94.584;2023-10-08T09:59:34;15.80;54.60
62809;DHT22;48848;39.002;-94.584;2023-10-08T10:02:00;15.80;54.50
62809;DHT22;48848;39.002;-94.584;2023-10-08T10:04:29;15.80;54.60
62809;DHT22;48848;39.002;-94.584;2023-10-08T10:06:57;15.70;54.50
62809;DHT22;48848;39.002;-94.584;2023-10-08T10:09:24;15.70;54.50
62809;DHT22;48848;39.002;-94.584;2023-10-08T10:11:51;15.70;54.60
62809;DHT22;48848;39.002;-94.584;2023-10-08T10:14:18;15.70;54.60
62809;DHT22;48848;39.002;-94.584;2023-10-08T10:16:48;15.70;54.70
62809;DHT22;48848;39.002;-94.584;2023-10-08T10:19:17;15.70;54.70
62809;DHT22;48848;39.002;-94.584;2023-10-08T10:21:46;15.70;54.80
62809;DHT22;48848;39.002;-94.584;2023-10-08T10:24:23;15.70;54.70
62809;DHT22;48848;39.002;-94.584;2023-10-08T10:27:06;15.60;54.70
62809;DHT22;48848;39.002;-94.584;2023-10-08T10:29:34;15.60;54.70
62809;DHT22;48848;39.002;-94.584;2023-10-08T10:32:00;15.60;54.80
62809;DHT22;48848;39.002;-94.584;2023-10-08T10:34:27;15.60;54.80
62809;DHT22;48848;39.002;-94.584;2023-10-08T10:36:56;15.60;54.80
62809;DHT22;48848;39.002;-94.584;2023-10-08T10:39:53;15.50;54.80
62809;DHT22;48848;39.002;-94.584;2023-10-08T10:42:20;15.50;54.90
62809;DHT22;48848;39.002;-94.584;2023-10-08T10:44:47;15.50;54.80
62809;DHT22;48848;39.002;-94.584;2023-10-08T10:47:16;15.50;54.80
62809;DHT22;48848;39.002;-94.584;2023-10-08T10:49:46;15.50;54.80
62809;DHT22;48848;39.002;-94.584;2023-10-08T10:52:24;15.50;54.80
62809;DHT22;48848;39.002;-94.584;2023-10-08T10:55:09;15.50;54.80
62809;DHT22;48848;39.002;-94.584;2023-10-08T10:57:41;15.50;54.90
62809;DHT22;48848;39.002;-94.584;2023-10-08T11:00:08;15.50;54.80
62809;DHT22;48848;39.002;-94.584;2023-10-08T11:02:52;15.50;54.90
62809;DHT22;48848;39.002;-94.584;2023-10-08T11:05:22;15.50;55.00
62809;DHT22;48848;39.002;-94.584;2023-10-08T11:07:54;15.50;55.00
62809;DHT22;48848;39.002;-94.584;2023-10-08T11:10:26;15.50;55.00
62809;DHT22;48848;39.002;-94.584;2023-10-08T11:12:54;15.40;54.90
62809;DHT22;48848;39.002;-94.584;2023-10-08T11:15:20;15.50;55.00
62809;DHT22;48848;39.002;-94.584;2023-10-08T11:17:49;15.50;55.00
62809;DHT22;48848;39.002;-94.584;2023-10-08T11:20:25;15.40;55.00
62809;DHT22;48848;39.002;-94.584;2023-10-08T11:22:51;15.40;55.10
62809;DHT22;48848;39.002;-94.584;2023-10-08T11:25:20;15.40;55.20
62809;DHT22;48848;39.002;-94.584;2023-10-08T11:27:52;15.40;55.00
62809;DHT22;48848;39.002;-94.584;2023-10-08T11:30:30;15.40;55.20
62809;DHT22;48848;39.002;-94.584;2023-10-08T11:32:57;15.30;55.10
62809;DHT22;48848;39.002;-94.584;2023-10-08T11:35:24;15.30;55.10
62809;DHT22;48848;39.002;-94.584;2023-10-08T11:37:57;15.30;55.10
62809;DHT22;48848;39.002;-94.584;2023-10-08T11:40:24;15.30;55.10
62809;DHT22;48848;39.002;-94.584;2023-10-08T11:43:14;15.30;55.10
62809;DHT22;48848;39.002;-94.584;2023-10-08T11:45:43;15.30;55.10
62809;DHT22;48848;39.002;-94.584;2023-10-08T11:48:14;15.30;55.00
62809;DHT22;48848;39.002;-94.584;2023-10-08T11:50:42;15.30;55.10
62809;DHT22;48848;39.002;-94.584;2023-10-08T11:53:08;15.30;55.10
62809;DHT22;48848;39.002;-94.584;2023-10-08T11:55:37;15.30;55.20
62809;DHT22;48848;39.002;-94.584;2023-10-08T11:58:04;15.30;55.10
62809;DHT22;48848;39.002;-94.584;2023-10-08T12:00:51;15.20;55.20
62809;DHT22;48848;39.002;-94.584;2023-10-08T12:03:18;15.20;56.10
62809;DHT22;48848;39.002;-94.584;2023-10-08T12:05:44;15.20;55.20
62809;DHT22;48848;39.002;-94.584;2023-10-08T12:08:14;15.20;55.20
62809;DHT22;48848;39.002;-94.584;2023-10-08T12:10:44;15.20;55.00
62809;DHT22;48848;39.002;-94.584;2023-10-08T12:13:13;15.20;55.20
62809;DHT22;48848;39.002;-94.584;2023-10-08T12:15:41;15.20;55.20
62809;DHT22;48848;39.002;-94.584;2023-10-08T12:18:10;15.20;55.30
62809;DHT22;48848;39.002;-94.584;2023-10-08T12:20:50;15.20;55.20
62809;DHT22;48848;39.002;-94.584;2023-10-08T12:23:16;15.10;55.20
62809;DHT22;48848;39.002;-94.584;2023-10-08T12:25:52;15.00;55.30
62809;DHT22;48848;39.002;-94.584;2023-10-08T12:28:18;15.00;55.60
62809;DHT22;48848;39.002;-94.584;2023-10-08T12:30:44;15.00;55.60
62809;DHT22;48848;39.002;-94.584;2023-10-08T12:33:10;15.00;55.60
62809;DHT22;48848;39.002;-94.584;2023-10-08T12:35:41;15.00;55.50
62809;DHT22;48848;39.002;-94.584;2023-10-08T12:38:07;15.00;55.50
62809;DHT22;48848;39.002;-94.584;2023-10-08T12:40:35;15.00;55.60
62809;DHT22;48848;39.002;-94.584;2023-10-08T12:43:14;14.90;56.40
62809;DHT22;48848;39.002;-94.584;2023-10-08T12:45:51;14.90;55.50
62809;DHT22;48848;39.002;-94.584;2023-10-08T12:50:45;15.00;55.60
62809;DHT22;48848;39.002;-94.584;2023-10-08T12:53:21;14.90;55.60
62809;DHT22;48848;39.002;-94.584;2023-10-08T12:55:55;15.00;55.50
62809;DHT22;48848;39.002;-94.584;2023-10-08T12:58:23;14.90;55.50
62809;DHT22;48848;39.002;-94.584;2023-10-08T13:00:55;14.90;55.50
62809;DHT22;48848;39.002;-94.584;2023-10-08T13:03:29;15.00;55.50
62809;DHT22;48848;39.002;-94.584;2023-10-08T13:05:58;14.90;55.40
62809;DHT22;48848;39.002;-94.584;2023-10-08T13:08:36;14.90;56.40
62809;DHT22;48848;39.002;-94.584;2023-10-08T13:11:02;14.90;55.50
62809;DHT22;48848;39.002;-94.584;2023-10-08T13:13:32;14.90;55.50
62809;DHT22;48848;39.002;-94.584;2023-10-08T13:15:59;14.90;55.50
62809;DHT22;48848;39.002;-94.584;2023-10-08T13:18:29;14.90;55.50
62809;DHT22;48848;39.002;-94.584;2023-10-08T13:20:55;14.90;55.40
62809;DHT22;48848;39.002;-94.584;2023-10-08T13:23:23;14.90;55.40
62809;DHT22;48848;39.002;-94.584;2023-10-08T13:25:50;14.90;55.20
62809;DHT22;48848;39.002;-94.584;2023-10-08T13:28:30;14.90;55.40
62809;DHT22;48848;39.002;-94.584;2023-10-08T13:30:59;14.90;55.30
62809;DHT22;48848;39.002;-94.584;2023-10-08T13:33:25;14.90;55.20
62809;DHT22;48848;39.002;-94.584;2023-10-08T13:35:51;14.90;55.30
62809;DHT22;48848;39.002;-94.584;2023-10-08T13:38:17;14.90;54.90
62809;DHT22;48848;39.002;-94.584;2023-10-08T13:40:51;14.90;55.10
62809;DHT22;48848;39.002;-94.584;2023-10-08T13:43:33;14.90;55.00
62809;DHT22;48848;39.002;-94.584;2023-10-08T13:46:00;14.90;54.90
62809;DHT22;48848;39.002;-94.584;2023-10-08T13:48:32;14.90;55.10
62809;DHT22;48848;39.002;-94.584;2023-10-08T13:51:02;14.90;55.00
62809;DHT22;48848;39.002;-94.584;2023-10-08T13:53:30;14.90;55.00
62809;DHT22;48848;39.002;-94.584;2023-10-08T13:55:57;14.90;54.80
62809;DHT22;48848;39.002;-94.584;2023-10-08T13:58:24;14.90;54.80
62809;DHT22;48848;39.002;-94.584;2023-10-08T14:00:50;14.90;54.70
62809;DHT22;48848;39.002;-94.584;2023-10-08T14:03:18;14.90;54.70
62809;DHT22;48848;39.002;-94.584;2023-10-08T14:05:49;14.90;54.70
62809;DHT22;48848;39.002;-94.584;2023-10-08T14:08:19;14.90;54.40
62809;DHT22;48848;39.002;-94.584;2023-10-08T14:10:45;14.90;54.70
62809;DHT22;48848;39.002;-94.584;2023-10-08T14:13:14;14.90;54.50
62809;DHT22;48848;39.002;-94.584;2023-10-08T14:15:45;15.00;54.50
62809;DHT22;48848;39.002;-94.584;2023-10-08T14:18:14;15.00;54.30
62809;DHT22;48848;39.002;-94.584;2023-10-08T14:20:43;15.00;54.40
62809;DHT22;48848;39.002;-94.584;2023-10-08T14:23:12;15.00;54.20
62809;DHT22;48848;39.002;-94.584;2023-10-08T14:25:38;15.00;54.00
62809;DHT22;48848;39.002;-94.584;2023-10-08T14:28:10;15.00;54.20
62809;DHT22;48848;39.002;-94.584;2023-10-08T14:30:50;15.00;54.30
62809;DHT22;48848;39.002;-94.584;2023-10-08T14:33:21;15.00;54.40
62809;DHT22;48848;39.002;-94.584;2023-10-08T14:35:52;15.00;54.30
62809;DHT22;48848;39.002;-94.584;2023-10-08T14:38:36;15.00;54.00
62809;DHT22;48848;39.002;-94.584;2023-10-08T14:41:20;15.00;54.00
62809;DHT22;48848;39.002;-94.584;2023-10-08T14:44:05;15.00;53.90
62809;DHT22;48848;39.002;-94.584;2023-10-08T14:46:32;15.00;53.80
62809;DHT22;48848;39.002;-94.584;2023-10-08T14:49:00;15.00;53.60
62809;DHT22;48848;39.002;-94.584;2023-10-08T14:51:27;15.00;53.70
62809;DHT22;48848;39.002;-94.584;2023-10-08T14:53:55;15.00;53.90
62809;DHT22;48848;39.002;-94.584;2023-10-08T14:56:21;15.00;53.90
62809;DHT22;48848;39.002;-94.584;2023-10-08T14:58:48;15.00;53.70
62809;DHT22;48848;39.002;-94.584;2023-10-08T15:01:14;15.10;53.80
62809;DHT22;48848;39.002;-94.584;2023-10-08T15:03:40;15.10;53.70
62809;DHT22;48848;39.002;-94.584;2023-10-08T15:06:06;15.10;53.50
62809;DHT22;48848;39.002;-94.584;2023-10-08T15:08:33;15.10;53.60
62809;DHT22;48848;39.002;-94.584;2023-10-08T15:10:59;15.10;53.40
62809;DHT22;48848;39.002;-94.584;2023-10-08T15:13:25;15.10;53.70
62809;DHT22;48848;39.002;-94.584;2023-10-08T15:15:52;15.10;53.40
62809;DHT22;48848;39.002;-94.584;2023-10-08T15:18:19;15.10;53.50
62809;DHT22;48848;39.002;-94.584;2023-10-08T15:20:48;15.10;53.50
62809;DHT22;48848;39.002;-94.584;2023-10-08T15:23:14;15.10;53.70
62809;DHT22;48848;39.002;-94.584;2023-10-08T15:25:42;15.10;53.70
62809;DHT22;48848;39.002;-94.584;2023-10-08T15:28:08;15.10;53.60
62809;DHT22;48848;39.002;-94.584;2023-10-08T15:30:34;15.10;53.50
62809;DHT22;48848;39.002;-94.584;2023-10-08T15:33:00;15.10;53.50
62809;DHT22;48848;39.002;-94.584;2023-10-08T15:35:26;15.10;53.70